createdAt,value
2022-09-14T00:02:48.361Z,100.00
2022-09-14T00:05:50.004Z,100.00
2022-09-14T00:08:54.089Z,100.00
2022-09-14T00:11:56.262Z,100.00
2022-09-14T00:14:58.029Z,100.00
2022-09-14T00:17:59.527Z,100.00
2022-09-14T00:21:06.987Z,100.00
2022-09-14T00:24:11.484Z,100.00
2022-09-14T00:27:13.289Z,100.00
2022-09-14T00:30:15.035Z,100.00
2022-09-14T00:33:16.678Z,100.00
2022-09-14T00:36:27.719Z,100.00
2022-09-14T00:39:29.463Z,100.00
2022-09-14T00:42:31.182Z,100.00
2022-09-14T00:45:32.983Z,100.00
2022-09-14T00:48:34.901Z,100.00
2022-09-14T00:51:41.590Z,100.00
2022-09-14T00:54:55.344Z,100.00
2022-09-14T00:57:57.181Z,100.00
2022-09-14T01:00:59.044Z,100.00
2022-09-14T01:04:00.856Z,100.00
2022-09-14T01:07:43.251Z,100.00
2022-09-14T01:11:19.781Z,100.00
2022-09-14T01:14:48.640Z,100.00
2022-09-14T01:18:18.925Z,100.00
2022-09-14T01:21:32.688Z,100.00
2022-09-14T01:24:55.892Z,100.00
2022-09-14T01:28:02.077Z,100.00
2022-09-14T01:31:12.102Z,100.00
2022-09-14T01:34:39.348Z,100.00
2022-09-14T01:37:47.392Z,100.00
2022-09-14T01:40:50.786Z,100.00
2022-09-14T01:44:05.594Z,100.00
2022-09-14T01:47:16.564Z,100.00
2022-09-14T01:50:41.458Z,100.00
2022-09-14T01:54:06.523Z,100.00
2022-09-14T01:57:31.952Z,100.00
2022-09-14T02:00:34.659Z,100.00
2022-09-14T02:04:04.295Z,100.00
2022-09-14T02:07:06.879Z,100.00
2022-09-14T02:10:13.535Z,100.00
2022-09-14T02:13:15.250Z,100.00
2022-09-14T02:16:18.241Z,100.00
2022-09-14T02:19:23.652Z,100.00
2022-09-14T02:22:27.419Z,100.00
2022-09-14T02:25:29.143Z,100.00
2022-09-14T02:28:31.036Z,100.00
2022-09-14T02:32:04.794Z,100.00
2022-09-14T02:35:22.230Z,100.00
2022-09-14T02:38:50.570Z,100.00
2022-09-14T02:42:20.673Z,100.00
2022-09-14T02:45:28.985Z,100.00
2022-09-14T02:49:08.382Z,100.00
2022-09-14T02:52:31.067Z,100.00
2022-09-14T02:55:41.812Z,100.00
2022-09-14T02:58:44.435Z,100.00
2022-09-14T03:01:46.199Z,100.00
2022-09-14T03:04:48.929Z,100.00
2022-09-14T03:07:50.619Z,100.00
2022-09-14T03:10:52.188Z,100.00
2022-09-14T03:13:53.791Z,100.00
2022-09-14T03:16:55.593Z,100.00
2022-09-14T03:19:57.184Z,100.00
2022-09-14T03:22:59.376Z,100.00
2022-09-14T03:26:01.185Z,100.00
2022-09-14T03:29:05.558Z,100.00
2022-09-14T03:32:10.986Z,100.00
2022-09-14T03:35:13.543Z,100.00
2022-09-14T03:38:15.317Z,100.00
2022-09-14T03:41:17.386Z,100.00
2022-09-14T03:44:19.065Z,100.00
2022-09-14T03:47:20.699Z,100.00
2022-09-14T03:50:22.341Z,100.00
2022-09-14T03:53:24.052Z,100.00
2022-09-14T03:56:25.738Z,100.00
2022-09-14T03:59:27.483Z,100.00
2022-09-14T04:02:29.859Z,100.00
2022-09-14T04:05:31.590Z,100.00
2022-09-14T04:08:36.190Z,100.00
2022-09-14T04:11:37.998Z,100.00
2022-09-14T04:14:39.534Z,100.00
2022-09-14T04:17:41.135Z,100.00
2022-09-14T04:20:42.710Z,100.00
2022-09-14T04:24:13.546Z,100.00
2022-09-14T04:27:06.518Z,100.00
2022-09-14T04:30:08.477Z,100.00
2022-09-14T04:33:10.138Z,100.00
2022-09-14T04:36:16.219Z,100.00
2022-09-14T04:39:18.067Z,100.00
2022-09-14T04:42:19.684Z,100.00
2022-09-14T04:45:21.365Z,100.00
2022-09-14T04:48:23.992Z,100.00
2022-09-14T04:51:29.614Z,100.00
2022-09-14T04:54:31.207Z,100.00
2022-09-14T04:57:32.871Z,100.00
2022-09-14T05:00:36.106Z,100.00
2022-09-14T05:03:39.043Z,100.00
2022-09-14T05:06:42.813Z,100.00
2022-09-14T05:09:44.494Z,100.00
2022-09-14T05:12:46.155Z,100.00
2022-09-14T05:15:47.911Z,100.00
2022-09-14T05:18:50.821Z,100.00
2022-09-14T05:21:54.010Z,100.00
2022-09-14T05:24:55.696Z,100.00
2022-09-14T05:27:57.463Z,100.00
2022-09-14T05:31:04.613Z,100.00
2022-09-14T05:34:06.383Z,100.00
2022-09-14T05:37:08.051Z,100.00
2022-09-14T05:40:10.418Z,100.00
2022-09-14T05:43:12.311Z,100.00
2022-09-14T05:46:22.245Z,100.00
2022-09-14T05:49:25.300Z,100.00
2022-09-14T05:52:30.076Z,100.00
2022-09-14T05:55:32.009Z,100.00
2022-09-14T05:58:36.314Z,100.00
2022-09-14T06:01:38.071Z,100.00
2022-09-14T06:04:39.900Z,100.00
2022-09-14T06:07:42.121Z,100.00
2022-09-14T06:10:44.341Z,100.00
2022-09-14T06:13:47.169Z,100.00
2022-09-14T06:16:49.050Z,100.00
2022-09-14T06:19:50.732Z,100.00
2022-09-14T06:22:52.519Z,100.00
2022-09-14T06:25:56.127Z,100.00
2022-09-14T06:28:57.829Z,100.00
2022-09-14T06:31:59.594Z,100.00
2022-09-14T06:35:01.272Z,100.00
2022-09-14T06:38:02.931Z,100.00
2022-09-14T06:41:07.091Z,100.00
2022-09-14T06:44:09.290Z,100.00
2022-09-14T06:47:10.909Z,100.00
2022-09-14T06:50:12.606Z,100.00
2022-09-14T06:53:14.393Z,100.00
2022-09-14T06:56:16.706Z,100.00
2022-09-14T06:59:18.683Z,100.00
2022-09-14T07:02:20.660Z,100.00
2022-09-14T07:05:22.920Z,100.00
2022-09-14T07:08:28.056Z,100.00
2022-09-14T07:11:29.953Z,100.00
2022-09-14T07:14:32.522Z,100.00
2022-09-14T07:17:36.375Z,100.00
2022-09-14T07:20:38.169Z,100.00
2022-09-14T07:23:42.048Z,100.00
2022-09-14T07:26:43.946Z,100.00
2022-09-14T07:29:45.563Z,100.00
2022-09-14T07:32:47.319Z,100.00
2022-09-14T07:35:49.187Z,100.00
2022-09-14T07:38:53.153Z,100.00
2022-09-14T07:41:55.630Z,100.00
2022-09-14T07:44:57.504Z,100.00
2022-09-14T07:47:59.435Z,100.00
2022-09-14T07:51:10.433Z,100.00
2022-09-14T07:54:14.829Z,100.00
2022-09-14T07:57:17.040Z,100.00
2022-09-14T08:00:18.951Z,100.00
2022-09-14T08:03:20.803Z,100.00
2022-09-14T08:06:25.864Z,100.00
2022-09-14T08:09:27.993Z,100.00
2022-09-14T08:12:29.809Z,100.00
2022-09-14T08:15:31.930Z,100.00
2022-09-14T08:18:35.731Z,100.00
2022-09-14T08:21:39.142Z,100.00
2022-09-14T08:24:44.027Z,100.00
2022-09-14T08:27:45.772Z,100.00
2022-09-14T08:30:47.489Z,100.00
2022-09-14T08:33:55.012Z,100.00
2022-09-14T08:36:56.848Z,100.00
2022-09-14T08:39:58.575Z,100.00
2022-09-14T08:43:04.151Z,100.00
2022-09-14T08:46:12.458Z,100.00
2022-09-14T08:49:52.250Z,100.00
2022-09-14T08:52:55.255Z,98.19
2022-09-14T08:56:02.830Z,100.00
2022-09-14T08:59:21.611Z,97.69
2022-09-14T09:02:32.273Z,95.46
2022-09-14T09:06:11.869Z,95.90
2022-09-14T09:09:39.631Z,97.88
2022-09-14T09:12:57.684Z,98.72
2022-09-14T09:16:05.814Z,96.33
2022-09-14T09:19:18.823Z,94.93
2022-09-14T09:22:23.999Z,96.02
2022-09-14T09:25:32.079Z,92.74
2022-09-14T09:28:34.433Z,89.25
2022-09-14T09:31:40.444Z,88.46
2022-09-14T09:35:24.801Z,94.21
2022-09-14T09:38:49.459Z,91.13
2022-09-14T09:42:21.921Z,90.08
2022-09-14T09:45:23.593Z,86.18
2022-09-14T09:48:28.645Z,86.51
2022-09-14T09:51:33.291Z,85.09
2022-09-14T09:54:35.667Z,82.19
2022-09-14T09:57:37.850Z,80.89
2022-09-14T10:00:39.509Z,83.22
2022-09-14T10:03:41.332Z,79.64
2022-09-14T10:06:50.066Z,77.93
2022-09-14T10:10:06.904Z,78.30
2022-09-14T10:13:47.270Z,79.74
2022-09-14T10:16:49.081Z,82.17
2022-09-14T10:19:52.972Z,81.76
2022-09-14T10:22:54.760Z,80.40
2022-09-14T10:26:14.937Z,80.02
2022-09-14T10:29:28.923Z,81.29
2022-09-14T10:32:32.477Z,80.86
2022-09-14T10:35:53.585Z,84.99
2022-09-14T10:39:03.985Z,82.47
2022-09-14T10:42:14.975Z,82.58
2022-09-14T10:45:31.558Z,80.05
2022-09-14T10:49:14.741Z,80.24
2022-09-14T10:52:30.350Z,83.17
2022-09-14T10:55:46.021Z,83.25
2022-09-14T10:59:12.327Z,81.09
2022-09-14T11:02:32.709Z,79.97
2022-09-14T11:05:53.112Z,79.64
2022-09-14T11:09:08.820Z,79.35
2022-09-14T11:12:26.739Z,78.07
2022-09-14T11:15:48.789Z,77.73
2022-09-14T11:18:51.457Z,79.01
2022-09-14T11:22:22.668Z,78.54
2022-09-14T11:25:33.550Z,78.49
2022-09-14T11:28:42.357Z,78.09
2022-09-14T11:32:20.454Z,80.09
2022-09-14T11:35:45.144Z,75.84
2022-09-14T11:38:53.379Z,77.33
2022-09-14T11:42:14.441Z,78.37
2022-09-14T11:45:22.832Z,77.66
2022-09-14T11:48:43.865Z,80.38
2022-09-14T11:52:04.200Z,76.79
2022-09-14T11:55:15.396Z,77.25
2022-09-14T11:58:31.216Z,80.86
2022-09-14T12:01:38.650Z,79.92
2022-09-14T12:05:09.426Z,79.41
2022-09-14T12:08:33.798Z,80.56
2022-09-14T12:11:36.512Z,78.66
2022-09-14T12:14:40.693Z,79.75
2022-09-14T12:17:43.110Z,83.00
2022-09-14T12:20:52.606Z,82.15
2022-09-14T12:23:57.740Z,84.15
2022-09-14T12:27:15.322Z,84.35
2022-09-14T12:30:56.216Z,85.63
2022-09-14T12:34:18.032Z,85.45
2022-09-14T12:37:37.674Z,84.16
2022-09-14T12:40:39.346Z,85.92
2022-09-14T12:43:49.841Z,87.11
2022-09-14T12:46:51.800Z,86.99
2022-09-14T12:49:57.037Z,87.92
2022-09-14T12:53:14.342Z,90.30
2022-09-14T12:56:23.933Z,91.86
2022-09-14T12:59:50.432Z,91.35
2022-09-14T13:03:18.952Z,89.08
2022-09-14T13:06:22.983Z,90.66
2022-09-14T13:09:28.502Z,90.43
2022-09-14T13:12:40.202Z,89.38
2022-09-14T13:15:52.720Z,88.27
2022-09-14T13:19:02.043Z,88.53
2022-09-14T13:22:18.474Z,88.34
2022-09-14T13:25:39.257Z,86.25
2022-09-14T13:28:45.377Z,88.58
2022-09-14T13:31:47.490Z,87.51
2022-09-14T13:34:49.315Z,84.57
2022-09-14T13:37:51.114Z,85.55
2022-09-14T13:40:55.377Z,84.48
2022-09-14T13:43:58.388Z,83.85
2022-09-14T13:47:05.730Z,83.83
2022-09-14T13:50:08.242Z,85.09
2022-09-14T13:53:43.859Z,80.82
2022-09-14T13:56:45.503Z,82.45
2022-09-14T14:00:14.982Z,80.44
2022-09-14T14:03:41.959Z,82.55
2022-09-14T14:06:45.945Z,81.93
2022-09-14T14:09:56.940Z,81.11
2022-09-14T14:13:00.640Z,81.65
2022-09-14T14:16:23.663Z,83.55
2022-09-14T14:19:28.504Z,82.20
2022-09-14T14:22:33.492Z,82.53
2022-09-14T14:25:43.471Z,82.05
2022-09-14T14:28:48.076Z,81.96
2022-09-14T14:31:50.432Z,82.60
2022-09-14T14:34:55.360Z,82.65
2022-09-14T14:37:57.383Z,82.50
2022-09-14T14:40:59.127Z,83.74
2022-09-14T14:44:01.508Z,82.56
2022-09-14T14:47:05.604Z,82.33
2022-09-14T14:50:15.775Z,82.20
2022-09-14T14:53:17.470Z,83.67
2022-09-14T14:56:19.790Z,84.95
2022-09-14T14:59:21.751Z,86.15
2022-09-14T15:02:23.431Z,83.28
2022-09-14T15:05:26.185Z,83.52
2022-09-14T15:08:28.071Z,85.81
2022-09-14T15:11:30.701Z,87.28
2022-09-14T15:14:32.495Z,85.98
2022-09-14T15:17:34.255Z,85.00
2022-09-14T15:20:36.020Z,85.38
2022-09-14T15:23:37.812Z,87.06
2022-09-14T15:26:39.920Z,82.66
2022-09-14T15:29:41.643Z,83.23
2022-09-14T15:32:43.484Z,84.55
2022-09-14T15:35:45.481Z,86.10
2022-09-14T15:38:47.197Z,87.65
2022-09-14T15:41:49.738Z,88.92
2022-09-14T15:44:51.610Z,88.56
2022-09-14T15:47:53.219Z,88.88
2022-09-14T15:50:57.680Z,88.69
2022-09-14T15:54:02.812Z,87.74
2022-09-14T15:57:10.446Z,88.70
2022-09-14T16:00:13.995Z,86.84
2022-09-14T16:03:15.764Z,86.18
2022-09-14T16:06:17.551Z,86.80
2022-09-14T16:09:22.222Z,86.64
2022-09-14T16:12:24.156Z,86.30
2022-09-14T16:15:25.941Z,88.49
2022-09-14T16:18:27.654Z,89.75
2022-09-14T16:21:31.020Z,89.97
2022-09-14T16:24:32.719Z,89.99
2022-09-14T16:27:34.821Z,91.71
2022-09-14T16:30:36.651Z,90.16
2022-09-14T16:33:40.271Z,88.92
2022-09-14T16:36:42.849Z,90.72
2022-09-14T16:39:44.803Z,93.54
2022-09-14T16:42:48.301Z,97.50
2022-09-14T16:46:04.392Z,100.00
2022-09-14T16:49:06.870Z,98.59
2022-09-14T16:52:08.668Z,100.00
2022-09-14T16:55:10.361Z,100.00
2022-09-14T16:58:12.552Z,100.00
2022-09-14T17:01:20.390Z,100.00
2022-09-14T17:04:23.785Z,100.00
2022-09-14T17:07:25.880Z,100.00
2022-09-14T17:10:27.700Z,100.00
2022-09-14T17:13:30.070Z,100.00
2022-09-14T17:16:32.497Z,100.00
2022-09-14T17:19:34.224Z,100.00
2022-09-14T17:22:37.172Z,100.00
2022-09-14T17:25:38.793Z,100.00
2022-09-14T17:28:44.416Z,100.00
2022-09-14T17:31:46.312Z,100.00
2022-09-14T17:34:48.049Z,100.00
2022-09-14T17:37:49.873Z,100.00
2022-09-14T17:40:51.886Z,100.00
2022-09-14T17:44:00.057Z,100.00
2022-09-14T17:47:01.826Z,100.00
2022-09-14T17:50:04.087Z,100.00
2022-09-14T17:53:05.841Z,100.00
2022-09-14T17:56:09.159Z,100.00
2022-09-14T17:59:13.926Z,100.00
2022-09-14T18:02:15.802Z,100.00
2022-09-14T18:05:17.916Z,100.00
2022-09-14T18:08:19.694Z,100.00
2022-09-14T18:11:21.992Z,100.00
2022-09-14T18:14:24.741Z,100.00
2022-09-14T18:17:26.403Z,100.00
2022-09-14T18:20:28.091Z,100.00
2022-09-14T18:23:30.641Z,100.00
2022-09-14T18:26:32.963Z,100.00
2022-09-14T18:29:34.525Z,100.00
2022-09-14T18:32:36.231Z,100.00
2022-09-14T18:35:38.394Z,100.00
2022-09-14T18:38:40.045Z,100.00
2022-09-14T18:41:41.897Z,100.00
2022-09-14T18:44:43.741Z,100.00
2022-09-14T18:47:45.923Z,100.00
2022-09-14T18:50:47.545Z,100.00
2022-09-14T18:53:49.352Z,100.00
2022-09-14T18:56:51.237Z,100.00
2022-09-14T18:59:53.033Z,100.00
2022-09-14T19:02:56.139Z,100.00
2022-09-14T19:05:58.149Z,100.00
2022-09-14T19:08:59.851Z,100.00
2022-09-14T19:12:02.148Z,100.00
2022-09-14T19:15:04.714Z,100.00
2022-09-14T19:18:08.555Z,100.00
2022-09-14T19:21:23.379Z,100.00
2022-09-14T19:24:30.602Z,100.00
2022-09-14T19:27:32.239Z,100.00
2022-09-14T19:30:36.372Z,100.00
2022-09-14T19:33:43.205Z,100.00
2022-09-14T19:36:47.670Z,100.00
2022-09-14T19:39:49.650Z,100.00
2022-09-14T19:42:51.846Z,100.00
2022-09-14T19:45:53.791Z,100.00
2022-09-14T19:48:55.774Z,100.00
2022-09-14T19:51:57.871Z,100.00
2022-09-14T19:54:59.643Z,100.00
2022-09-14T19:58:01.401Z,100.00
2022-09-14T20:01:03.925Z,100.00
2022-09-14T20:04:07.896Z,100.00
2022-09-14T20:07:10.382Z,100.00
2022-09-14T20:10:12.376Z,100.00
2022-09-14T20:13:14.268Z,100.00
2022-09-14T20:16:23.068Z,100.00
2022-09-14T20:19:32.646Z,100.00
2022-09-14T20:22:34.323Z,100.00
2022-09-14T20:25:36.187Z,100.00
2022-09-14T20:28:40.786Z,100.00
2022-09-14T20:31:42.520Z,100.00
2022-09-14T20:34:44.249Z,100.00
2022-09-14T20:37:46.019Z,100.00
2022-09-14T20:40:47.647Z,100.00
2022-09-14T20:43:49.400Z,100.00
2022-09-14T20:46:51.836Z,100.00
2022-09-14T20:49:53.914Z,100.00
2022-09-14T20:52:56.341Z,100.00
2022-09-14T20:56:03.178Z,100.00
2022-09-14T20:59:08.342Z,100.00
2022-09-14T21:02:10.380Z,100.00
2022-09-14T21:05:12.089Z,100.00
2022-09-14T21:08:14.411Z,100.00
2022-09-14T21:11:21.868Z,100.00
2022-09-14T21:14:23.611Z,100.00
2022-09-14T21:17:25.362Z,100.00
2022-09-14T21:20:27.080Z,100.00
2022-09-14T21:23:28.763Z,100.00
2022-09-14T21:26:33.208Z,100.00
2022-09-14T21:29:34.849Z,100.00
2022-09-14T21:32:36.374Z,100.00
2022-09-14T21:35:38.127Z,100.00
2022-09-14T21:38:40.199Z,100.00
2022-09-14T21:41:43.939Z,100.00
2022-09-14T21:44:45.574Z,100.00
2022-09-14T21:47:47.359Z,100.00
2022-09-14T21:50:48.918Z,100.00
2022-09-14T21:53:55.831Z,100.00
2022-09-14T21:56:57.499Z,100.00
2022-09-14T21:59:58.994Z,100.00
2022-09-14T22:03:00.770Z,100.00
2022-09-14T22:06:07.018Z,100.00
2022-09-14T22:09:08.532Z,100.00
2022-09-14T22:12:10.605Z,100.00
2022-09-14T22:15:12.375Z,100.00
2022-09-14T22:18:15.430Z,100.00
2022-09-14T22:21:17.811Z,100.00
2022-09-14T22:24:31.298Z,100.00
2022-09-14T22:27:35.366Z,100.00
2022-09-14T22:30:37.124Z,100.00
2022-09-14T22:33:38.940Z,100.00
2022-09-14T22:36:41.076Z,100.00
2022-09-14T22:39:42.749Z,100.00
2022-09-14T22:42:44.378Z,100.00
2022-09-14T22:45:46.643Z,100.00
2022-09-14T22:48:50.417Z,100.00
2022-09-14T22:51:52.128Z,100.00
2022-09-14T22:54:53.771Z,100.00
2022-09-14T22:57:55.331Z,100.00
2022-09-14T23:00:57.954Z,100.00
2022-09-14T23:04:09.083Z,100.00
2022-09-14T23:07:10.685Z,100.00
2022-09-14T23:10:12.239Z,100.00
2022-09-14T23:13:15.222Z,100.00
2022-09-14T23:16:19.742Z,100.00
2022-09-14T23:19:21.487Z,100.00
2022-09-14T23:22:24.319Z,100.00
2022-09-14T23:25:26.042Z,100.00
2022-09-14T23:28:27.532Z,100.00
2022-09-14T23:31:31.013Z,100.00
2022-09-14T23:34:32.781Z,100.00
2022-09-14T23:37:34.506Z,100.00
2022-09-14T23:40:35.914Z,100.00
2022-09-14T23:43:37.981Z,100.00
2022-09-14T23:46:39.993Z,100.00
2022-09-14T23:49:41.491Z,100.00
2022-09-14T23:52:43.274Z,100.00
2022-09-14T23:55:46.124Z,100.00
2022-09-14T23:58:47.893Z,100.00
